createdAt,value
2023-04-22T00:01:11.375Z,100593.59
2023-04-22T00:03:51.208Z,100586.53
2023-04-22T00:06:20.222Z,100588.31
2023-04-22T00:08:48.580Z,100586.59
2023-04-22T00:11:22.271Z,100585.72
2023-04-22T00:13:53.948Z,100581.28
2023-04-22T00:16:23.069Z,100575.09
2023-04-22T00:18:59.827Z,100566.28
2023-04-22T00:21:38.657Z,100568.06
2023-04-22T00:24:07.185Z,100568.06
2023-04-22T00:26:35.257Z,100563.63
2023-04-22T00:29:03.034Z,100560.13
2023-04-22T00:31:30.821Z,100555.72
2023-04-22T00:34:00.437Z,100553.94
2023-04-22T00:36:28.696Z,100557.53
2023-04-22T00:38:56.385Z,100553.09
2023-04-22T00:41:24.845Z,100550.44
2023-04-22T00:43:53.527Z,100543.38
2023-04-22T00:46:21.616Z,100549.56
2023-04-22T00:48:50.320Z,100541.63
2023-04-22T00:51:19.550Z,100546.06
2023-04-22T00:53:47.371Z,100548.72
2023-04-22T00:56:15.304Z,100542.50
2023-04-22T00:58:43.105Z,100531.03
2023-04-22T01:01:11.015Z,100535.47
2023-04-22T01:03:41.769Z,100540.78
2023-04-22T01:06:09.681Z,100539.91
2023-04-22T01:08:38.656Z,100542.56
2023-04-22T01:11:06.512Z,100531.09
2023-04-22T01:13:35.882Z,100539.97
2023-04-22T01:16:03.820Z,100539.06
2023-04-22T01:18:32.448Z,100527.56
2023-04-22T01:21:00.055Z,100531.13
2023-04-22T01:23:32.347Z,100529.34
2023-04-22T01:26:00.617Z,100520.53
2023-04-22T01:28:28.760Z,100524.91
2023-04-22T01:30:57.047Z,100522.31
2023-04-22T01:33:25.319Z,100524.06
2023-04-22T01:35:53.048Z,100524.06
2023-04-22T01:38:20.808Z,100523.19
2023-04-22T01:40:50.292Z,100522.31
2023-04-22T01:43:17.986Z,100525.88
2023-04-22T01:45:45.998Z,100523.22
2023-04-22T01:48:13.702Z,100526.78
2023-04-22T01:50:42.322Z,100525.00
2023-04-22T01:53:13.957Z,100527.69
2023-04-22T01:55:43.122Z,100519.75
2023-04-22T01:58:15.564Z,100520.63
2023-04-22T02:00:43.846Z,100518.84
2023-04-22T02:03:11.731Z,100511.81
2023-04-22T02:05:39.476Z,100510.94
2023-04-22T02:08:07.505Z,100510.94
2023-04-22T02:10:35.262Z,100514.44
2023-04-22T02:13:03.041Z,100513.56
2023-04-22T02:15:32.141Z,100512.69
2023-04-22T02:18:00.017Z,100509.16
2023-04-22T02:20:28.002Z,100510.94
2023-04-22T02:22:55.787Z,100507.41
2023-04-22T02:25:23.833Z,100504.75
2023-04-22T02:27:51.571Z,100501.22
2023-04-22T02:30:19.600Z,100509.16
2023-04-22T02:32:49.428Z,100506.50
2023-04-22T02:35:17.208Z,100507.41
2023-04-22T02:37:44.890Z,100513.56
2023-04-22T02:40:13.285Z,100498.56
2023-04-22T02:42:41.163Z,100503.88
2023-04-22T02:45:09.691Z,100495.91
2023-04-22T02:47:37.458Z,100503.84
2023-04-22T02:50:08.446Z,100498.56
2023-04-22T02:52:36.517Z,100499.44
2023-04-22T02:55:04.327Z,100502.09
2023-04-22T02:57:32.386Z,100495.03
2023-04-22T03:00:00.066Z,100496.78
2023-04-22T03:02:28.217Z,100507.41
2023-04-22T03:05:14.461Z,100510.03
2023-04-22T03:07:42.144Z,100504.72
2023-04-22T03:10:10.611Z,100510.03
2023-04-22T03:12:38.290Z,100515.31
2023-04-22T03:15:07.011Z,100510.00
2023-04-22T03:17:36.012Z,100507.38
2023-04-22T03:20:09.202Z,100510.88
2023-04-22T03:22:38.470Z,100502.94
2023-04-22T03:25:09.076Z,100510.88
2023-04-22T03:27:37.431Z,100512.63
2023-04-22T03:30:05.940Z,100502.03
2023-04-22T03:32:33.675Z,100494.06
2023-04-22T03:35:18.383Z,100490.56
2023-04-22T03:37:50.046Z,100488.78
2023-04-22T03:40:22.413Z,100487.91
2023-04-22T03:42:50.508Z,100486.13
2023-04-22T03:45:20.653Z,100486.97
2023-04-22T03:47:56.276Z,100481.66
2023-04-22T03:50:31.550Z,100482.56
2023-04-22T03:53:02.656Z,100481.69
2023-04-22T03:55:30.523Z,100489.59
2023-04-22T03:57:58.293Z,100495.75
2023-04-22T04:00:26.620Z,100498.38
2023-04-22T04:03:07.033Z,100492.22
2023-04-22T04:05:35.915Z,100491.31
2023-04-22T04:08:05.544Z,100494.84
2023-04-22T04:10:33.445Z,100485.16
2023-04-22T04:13:04.103Z,100486.00
2023-04-22T04:15:41.098Z,100485.13
2023-04-22T04:18:11.649Z,100486.88
2023-04-22T04:20:39.514Z,100482.47
2023-04-22T04:23:08.909Z,100477.19
2023-04-22T04:25:41.911Z,100474.50
2023-04-22T04:28:13.922Z,100477.16
2023-04-22T04:30:42.333Z,100477.13
2023-04-22T04:33:12.425Z,100482.41
2023-04-22T04:35:43.427Z,100479.75
2023-04-22T04:38:14.452Z,100483.28
2023-04-22T04:40:45.332Z,100485.91
2023-04-22T04:43:17.707Z,100480.59
2023-04-22T04:45:57.157Z,100485.88
2023-04-22T04:48:36.887Z,100484.13
2023-04-22T04:51:08.351Z,100485.88
2023-04-22T04:53:43.486Z,100481.50
2023-04-22T04:56:12.223Z,100470.00
2023-04-22T04:58:40.376Z,100477.97
2023-04-22T05:01:16.277Z,100486.81
2023-04-22T05:03:52.340Z,100488.56
2023-04-22T05:06:21.799Z,100485.06
2023-04-22T05:08:58.724Z,100488.59
2023-04-22T05:11:37.743Z,100489.47
2023-04-22T05:14:13.157Z,100490.38
2023-04-22T05:16:49.608Z,100494.81
2023-04-22T05:19:24.385Z,100493.91
2023-04-22T05:21:56.907Z,100496.56
2023-04-22T05:24:30.183Z,100497.47
2023-04-22T05:27:04.667Z,100497.47
2023-04-22T05:29:39.697Z,100501.03
2023-04-22T05:32:09.731Z,100502.78
2023-04-22T05:34:40.164Z,100504.59
2023-04-22T05:37:08.325Z,100497.56
2023-04-22T05:39:39.891Z,100498.47
2023-04-22T05:42:10.315Z,100498.47
2023-04-22T05:44:39.002Z,100496.75
2023-04-22T05:47:07.549Z,100492.34
2023-04-22T05:49:38.834Z,100495.03
2023-04-22T05:52:32.441Z,100490.59
2023-04-22T05:55:10.269Z,100494.16
2023-04-22T05:57:39.050Z,100484.44
2023-04-22T06:00:15.031Z,100479.13
2023-04-22T06:02:45.315Z,100480.03
2023-04-22T06:05:13.555Z,100481.78
2023-04-22T06:07:41.835Z,100477.38
2023-04-22T06:10:12.256Z,100478.25
2023-04-22T06:12:39.981Z,100485.28
2023-04-22T06:15:08.642Z,100489.72
2023-04-22T06:17:37.566Z,100477.31
2023-04-22T06:20:06.635Z,100472.88
2023-04-22T06:22:34.555Z,100485.22
2023-04-22T06:25:02.881Z,100480.78
2023-04-22T06:27:31.946Z,100491.41
2023-04-22T06:29:59.800Z,100484.31
2023-04-22T06:32:27.447Z,100479.81
2023-04-22T06:34:55.095Z,100476.28
2023-04-22T06:37:23.361Z,100471.78
2023-04-22T06:39:51.182Z,100475.28
2023-04-22T06:42:38.769Z,100471.72
2023-04-22T06:45:38.638Z,100466.34
2023-04-22T06:48:45.758Z,100466.28
2023-04-22T06:51:24.633Z,100468.88
2023-04-22T06:53:52.418Z,100472.34
2023-04-22T06:56:20.226Z,100468.72
2023-04-22T06:58:49.487Z,100469.50
2023-04-22T07:01:18.060Z,100473.84
2023-04-22T07:03:48.388Z,100475.56
2023-04-22T07:06:16.419Z,100478.13
2023-04-22T07:08:44.305Z,100474.53
2023-04-22T07:11:14.259Z,100466.47
2023-04-22T07:14:06.540Z,100471.66
2023-04-22T07:16:34.559Z,100476.81
2023-04-22T07:19:02.311Z,100474.03
2023-04-22T07:21:30.042Z,100478.34
2023-04-22T07:23:57.632Z,100465.84
2023-04-22T07:26:25.737Z,100464.81
2023-04-22T07:28:53.379Z,100464.63
2023-04-22T07:31:22.420Z,100468.06
2023-04-22T07:33:50.338Z,100459.88
2023-04-22T07:36:18.189Z,100457.00
2023-04-22T07:38:45.961Z,100463.03
2023-04-22T07:41:13.978Z,100464.56
2023-04-22T07:43:41.631Z,100460.75
2023-04-22T07:46:09.401Z,100455.16
2023-04-22T07:48:38.580Z,100446.06
2023-04-22T07:51:06.615Z,100452.00
2023-04-22T07:53:34.381Z,100443.75
2023-04-22T07:56:02.883Z,100439.00
2023-04-22T07:58:30.514Z,100435.09
2023-04-22T08:00:58.329Z,100431.16
2023-04-22T08:03:26.590Z,100440.63
2023-04-22T08:05:58.175Z,100442.03
2023-04-22T08:08:26.666Z,100437.25
2023-04-22T08:10:54.401Z,100435.94
2023-04-22T08:13:26.147Z,100432.78
2023-04-22T08:15:54.033Z,100435.88
2023-04-22T08:18:21.809Z,100431.88
2023-04-22T08:20:51.313Z,100432.28
2023-04-22T08:23:20.305Z,100428.22
2023-04-22T08:25:48.185Z,100438.44
2023-04-22T08:28:16.197Z,100433.63
2023-04-22T08:30:43.858Z,100431.56
2023-04-22T08:33:12.120Z,100431.22
2023-04-22T08:35:39.882Z,100432.50
2023-04-22T08:38:07.556Z,100423.19
2023-04-22T08:40:36.732Z,100422.78
2023-04-22T08:43:05.161Z,100415.16
2023-04-22T08:45:33.685Z,100417.31
2023-04-22T08:48:01.772Z,100403.47
2023-04-22T08:50:30.060Z,100411.13
2023-04-22T08:55:33.299Z,100402.56
2023-04-22T08:58:03.898Z,100407.56
2023-04-22T09:00:34.456Z,100405.41
2023-04-22T09:03:03.893Z,100411.31
2023-04-22T09:05:35.084Z,100402.84
2023-04-22T09:08:04.245Z,100406.97
2023-04-22T09:10:34.350Z,100398.66
2023-04-22T09:13:04.426Z,100394.66
2023-04-22T09:15:32.254Z,100399.63
2023-04-22T09:18:00.046Z,100404.53
2023-04-22T09:20:28.702Z,100402.09
2023-04-22T09:22:57.989Z,100399.88
2023-04-22T09:25:27.605Z,100404.47
2023-04-22T09:27:58.641Z,100402.28
2023-04-22T09:30:28.348Z,100393.25
2023-04-22T09:32:57.854Z,100404.44
2023-04-22T09:35:28.393Z,100407.56
2023-04-22T09:37:56.143Z,100399.75
2023-04-22T09:40:27.006Z,100409.03
2023-04-22T09:42:58.446Z,100404.13
2023-04-22T09:45:28.370Z,100400.94
2023-04-22T09:47:57.628Z,100408.41
2023-04-22T09:50:27.024Z,100408.78
2023-04-22T09:52:57.768Z,100395.72
2023-04-22T09:55:27.893Z,100399.09
2023-04-22T09:57:59.033Z,100387.88
2023-04-22T10:00:30.180Z,100387.09
2023-04-22T10:02:58.148Z,100380.81
2023-04-22T10:05:27.133Z,100386.38
2023-04-22T10:07:54.943Z,100386.09
2023-04-22T10:10:23.467Z,100385.44
2023-04-22T10:12:52.356Z,100386.56
2023-04-22T10:15:21.823Z,100378.84
2023-04-22T10:17:53.295Z,100383.47
2023-04-22T10:20:22.494Z,100366.72
2023-04-22T10:22:54.277Z,100361.16
2023-04-22T10:25:26.127Z,100360.44
2023-04-22T10:27:55.782Z,100365.25
2023-04-22T10:30:34.269Z,100354.13
2023-04-22T10:33:37.049Z,100355.88
2023-04-22T10:36:10.135Z,100358.66
2023-04-22T10:38:38.587Z,100362.69
2023-04-22T10:41:06.451Z,100369.22
2023-04-22T10:43:45.281Z,100360.09
2023-04-22T10:46:49.421Z,100350.91
2023-04-22T10:49:21.794Z,100359.34
2023-04-22T10:51:51.092Z,100364.22
2023-04-22T10:54:57.620Z,100348.19
2023-04-22T10:57:36.259Z,100353.84
2023-04-22T11:00:35.397Z,100356.44
2023-04-22T11:03:15.347Z,100344.66
2023-04-22T11:05:45.396Z,100349.69
2023-04-22T11:08:21.636Z,100352.91
2023-04-22T11:10:50.862Z,100342.75
2023-04-22T11:13:21.101Z,100336.06
2023-04-22T11:15:50.583Z,100341.88
2023-04-22T11:18:21.272Z,100337.81
2023-04-22T11:20:51.447Z,100329.09
2023-04-22T11:23:22.486Z,100323.78
2023-04-22T11:25:55.962Z,100316.34
2023-04-22T11:28:23.943Z,100321.94
2023-04-22T11:30:52.477Z,100322.22
2023-04-22T11:33:20.932Z,100319.22
2023-04-22T11:35:51.647Z,100318.09
2023-04-22T11:38:19.604Z,100321.75
2023-04-22T11:40:47.933Z,100309.63
2023-04-22T11:43:16.369Z,100310.75
2023-04-22T11:45:44.343Z,100312.56
2023-04-22T11:48:12.532Z,100305.56
2023-04-22T11:50:44.232Z,100301.75
2023-04-22T11:53:18.005Z,100309.47
2023-04-22T11:55:47.467Z,100304.16
2023-04-22T11:58:18.016Z,100302.78
2023-04-22T12:00:48.214Z,100311.75
2023-04-22T12:03:17.290Z,100299.47
2023-04-22T12:05:46.764Z,100295.81
2023-04-22T12:08:18.470Z,100286.75
2023-04-22T12:10:48.169Z,100288.81
2023-04-22T12:13:20.866Z,100293.09
2023-04-22T12:15:49.181Z,100292.00
2023-04-22T12:18:16.941Z,100296.34
2023-04-22T12:20:44.800Z,100280.94
2023-04-22T12:23:17.381Z,100288.97
2023-04-22T12:25:45.319Z,100290.81
2023-04-22T12:28:14.338Z,100289.94
2023-04-22T12:30:42.463Z,100286.34
2023-04-22T12:33:10.972Z,100298.72
2023-04-22T12:35:39.038Z,100283.53
2023-04-22T12:38:06.821Z,100287.56
2023-04-22T12:40:36.172Z,100282.56
2023-04-22T12:43:06.195Z,100284.75
2023-04-22T12:45:34.050Z,100286.47
2023-04-22T12:48:02.006Z,100275.59
2023-04-22T12:50:29.742Z,100273.09
2023-04-22T12:52:57.523Z,100278.19
2023-04-22T12:55:26.076Z,100273.84
2023-04-22T12:57:55.507Z,100272.88
2023-04-22T13:00:23.416Z,100269.63
2023-04-22T13:02:51.434Z,100265.84
2023-04-22T13:05:20.355Z,100260.06
2023-04-22T13:07:56.387Z,100251.72
2023-04-22T13:10:34.484Z,100259.75
2023-04-22T13:15:35.492Z,100248.38
2023-04-22T13:18:03.361Z,100244.09
2023-04-22T13:20:31.252Z,100241.59
2023-04-22T13:22:59.003Z,100244.31
2023-04-22T13:25:27.105Z,100241.84
2023-04-22T13:27:54.873Z,100232.50
2023-04-22T13:30:24.005Z,100235.78
2023-04-22T13:32:52.083Z,100232.28
2023-04-22T13:35:20.063Z,100215.97
2023-04-22T13:37:47.878Z,100225.97
2023-04-22T13:40:15.618Z,100221.75
2023-04-22T13:42:44.439Z,100219.69
2023-04-22T13:45:12.557Z,100215.75
2023-04-22T13:47:41.730Z,100211.88
2023-04-22T13:50:10.762Z,100213.47
2023-04-22T13:52:38.819Z,100201.97
2023-04-22T13:55:07.450Z,100196.66
2023-04-22T13:57:35.257Z,100197.59
2023-04-22T14:00:03.960Z,100195.44
2023-04-22T14:02:40.945Z,100186.22
2023-04-22T14:05:10.596Z,100179.13
2023-04-22T14:07:38.517Z,100183.38
2023-04-22T14:10:08.437Z,100178.63
2023-04-22T14:12:36.224Z,100169.06
2023-04-22T14:15:04.161Z,100169.06
2023-04-22T14:17:31.939Z,100157.69
2023-04-22T14:20:01.080Z,100164.06
2023-04-22T14:22:28.804Z,100161.69
2023-04-22T14:24:56.551Z,100164.94
2023-04-22T14:27:24.382Z,100159.63
2023-04-22T14:29:52.491Z,100144.38
2023-04-22T14:32:20.418Z,100140.94
2023-04-22T14:34:48.170Z,100154.81
2023-04-22T14:37:17.260Z,100140.53
2023-04-22T14:39:44.951Z,100143.88
2023-04-22T14:42:12.763Z,100145.28
2023-04-22T14:44:40.665Z,100134.69
2023-04-22T14:47:08.411Z,100135.16
2023-04-22T14:49:36.229Z,100131.44
2023-04-22T14:52:04.056Z,100125.88
2023-04-22T14:54:33.451Z,100119.56
2023-04-22T14:57:01.720Z,100127.69
2023-04-22T14:59:29.564Z,100124.06
2023-04-22T15:01:57.883Z,100126.03
2023-04-22T15:04:26.643Z,100119.28
2023-04-22T15:06:57.737Z,100128.78
2023-04-22T15:09:25.571Z,100112.72
2023-04-22T15:11:56.513Z,100122.03
2023-04-22T15:14:24.380Z,100119.16
2023-04-22T15:16:52.230Z,100111.53
2023-04-22T15:19:19.965Z,100108.34
2023-04-22T15:21:47.937Z,100103.22
2023-04-22T15:24:15.732Z,100103.41
2023-04-22T15:26:43.622Z,100100.63
2023-04-22T15:29:12.976Z,100096.28
2023-04-22T15:31:40.778Z,100093.69
2023-04-22T15:34:08.848Z,100087.97
2023-04-22T15:36:36.680Z,100093.97
2023-04-22T15:39:05.486Z,100095.19
2023-04-22T15:41:34.072Z,100088.13
2023-04-22T15:44:02.422Z,100091.25
2023-04-22T15:46:33.375Z,100079.16
2023-04-22T15:49:02.035Z,100079.38
2023-04-22T15:51:31.000Z,100085.91
2023-04-22T15:53:59.625Z,100078.28
2023-04-22T15:56:29.484Z,100079.53
2023-04-22T15:58:57.203Z,100075.28
2023-04-22T16:01:25.068Z,100077.25
2023-04-22T16:03:54.283Z,100071.25
2023-04-22T16:06:22.112Z,100073.38
2023-04-22T16:08:49.945Z,100071.06
2023-04-22T16:11:17.880Z,100067.56
2023-04-22T16:13:46.092Z,100064.28
2023-04-22T16:16:14.078Z,100062.94
2023-04-22T16:18:44.201Z,100056.97
2023-04-22T16:21:13.664Z,100053.75
2023-04-22T16:23:41.477Z,100049.63
2023-04-22T16:26:09.357Z,100057.91
2023-04-22T16:28:37.188Z,100054.53
2023-04-22T16:31:05.124Z,100053.91
2023-04-22T16:33:34.288Z,100045.97
2023-04-22T16:36:02.105Z,100045.41
2023-04-22T16:38:31.217Z,100045.75
2023-04-22T16:40:58.991Z,100041.69
2023-04-22T16:43:26.712Z,100040.34
2023-04-22T16:45:54.453Z,100037.13
2023-04-22T16:48:22.144Z,100037.59
2023-04-22T16:50:51.260Z,100035.28
2023-04-22T16:53:19.218Z,100034.06
2023-04-22T16:55:48.357Z,100032.00
2023-04-22T16:58:16.226Z,100029.03
2023-04-22T17:00:45.279Z,100031.47
2023-04-22T17:03:14.422Z,100020.44
2023-04-22T17:05:42.357Z,100018.25
2023-04-22T17:08:10.224Z,100009.03
2023-04-22T17:10:41.511Z,100014.19
2023-04-22T17:13:10.766Z,100012.97
2023-04-22T17:15:38.745Z,100015.38
2023-04-22T17:18:07.895Z,100015.88
2023-04-22T17:20:36.068Z,100010.13
2023-04-22T17:23:04.188Z,100008.94
2023-04-22T17:25:32.338Z,100005.97
2023-04-22T17:28:00.003Z,100011.84
2023-04-22T17:30:29.180Z,100007.03
2023-04-22T17:32:57.422Z,100003.97
2023-04-22T17:35:25.464Z,100002.69
2023-04-22T17:37:53.710Z,100005.78
2023-04-22T17:40:21.929Z,100001.78
2023-04-22T17:42:49.675Z,100004.97
2023-04-22T17:45:17.538Z,100001.84
2023-04-22T17:47:48.445Z,99999.66
2023-04-22T17:50:16.428Z,100006.38
2023-04-22T17:52:44.457Z,99988.88
2023-04-22T17:55:12.208Z,99999.06
2023-04-22T17:57:40.813Z,100000.28
2023-04-22T18:00:10.252Z,99986.44
2023-04-22T18:02:39.710Z,100001.91
2023-04-22T18:05:09.790Z,99994.22
2023-04-22T18:07:37.533Z,99989.09
2023-04-22T18:10:06.280Z,99991.22
2023-04-22T18:12:34.004Z,99995.22
2023-04-22T18:15:01.982Z,99995.50
2023-04-22T18:17:29.734Z,99993.09
2023-04-22T18:20:06.331Z,100001.53
2023-04-22T18:22:43.467Z,99992.94
2023-04-22T18:25:11.457Z,99988.84
2023-04-22T18:27:39.183Z,99998.09
2023-04-22T18:30:07.955Z,99995.72
2023-04-22T18:32:36.828Z,99994.34
2023-04-22T18:35:05.726Z,100006.31
2023-04-22T18:37:34.884Z,99995.94
2023-04-22T18:40:06.105Z,100001.56
2023-04-22T18:42:33.856Z,99993.91
2023-04-22T18:45:04.635Z,100004.03
2023-04-22T18:47:33.310Z,99998.03
2023-04-22T18:50:01.342Z,100006.38
2023-04-22T18:52:29.160Z,100012.00
2023-04-22T18:54:57.145Z,100009.66
2023-04-22T18:57:26.483Z,100009.91
2023-04-22T18:59:54.983Z,100007.50
2023-04-22T19:02:22.922Z,100005.91
2023-04-22T19:04:50.999Z,100017.78
2023-04-22T19:07:18.849Z,100013.59
2023-04-22T19:09:46.740Z,100003.97
2023-04-22T19:12:16.613Z,100007.84
2023-04-22T19:14:47.147Z,99999.16
2023-04-22T19:17:14.997Z,100005.69
2023-04-22T19:19:43.210Z,99998.81
2023-04-22T19:22:12.448Z,100000.88
2023-04-22T19:24:40.241Z,99995.78
2023-04-22T19:27:12.388Z,100001.41
2023-04-22T19:29:40.745Z,100000.72
2023-04-22T19:32:11.034Z,99997.38
2023-04-22T19:34:39.221Z,99991.31
2023-04-22T19:37:08.203Z,99989.81
2023-04-22T19:39:36.350Z,99992.59
2023-04-22T19:42:04.313Z,99996.31
2023-04-22T19:44:32.252Z,99984.97
2023-04-22T19:47:00.216Z,99987.81
2023-04-22T19:49:31.183Z,99987.97
2023-04-22T19:51:59.118Z,99991.72
2023-04-22T19:54:28.908Z,99980.28
2023-04-22T19:56:58.000Z,99977.66
2023-04-22T19:59:28.041Z,99982.22
2023-04-22T20:01:56.089Z,99977.78
2023-04-22T20:04:24.482Z,99985.84
2023-04-22T20:06:54.256Z,99977.94
2023-04-22T20:09:22.632Z,99979.84
2023-04-22T20:11:51.023Z,99989.75
2023-04-22T20:14:19.681Z,99987.16
2023-04-22T20:16:49.886Z,99988.16
2023-04-22T20:19:19.128Z,99977.53
2023-04-22T20:21:48.804Z,99978.50
2023-04-22T20:24:20.089Z,99983.91
2023-04-22T20:26:49.558Z,99980.47
2023-04-22T20:29:18.857Z,100020.78
2023-04-22T20:31:47.017Z,100009.47
2023-04-22T20:34:14.973Z,99997.34
2023-04-22T20:36:43.689Z,99999.34
2023-04-22T20:39:14.236Z,99976.34
2023-04-22T20:41:44.385Z,99992.53
2023-04-22T20:44:12.168Z,99992.69
2023-04-22T20:46:40.116Z,99995.41
2023-04-22T20:49:08.357Z,99987.44
2023-04-22T20:51:36.269Z,99982.09
2023-04-22T20:54:06.165Z,99992.88
2023-04-22T20:56:37.661Z,99988.44
2023-04-22T20:59:06.998Z,99986.66
2023-04-22T21:01:35.435Z,99984.03
2023-04-22T21:04:04.531Z,99989.38
2023-04-22T21:06:34.074Z,99993.81
2023-04-22T21:09:03.094Z,99999.16
2023-04-22T21:11:31.533Z,99991.16
2023-04-22T21:13:59.997Z,99985.81
2023-04-22T21:16:31.559Z,99989.28
2023-04-22T21:19:00.770Z,99990.25
2023-04-22T21:21:33.941Z,99984.97
2023-04-22T21:24:02.591Z,99992.09
2023-04-22T21:26:30.622Z,99988.66
2023-04-22T21:28:59.293Z,99982.50
2023-04-22T21:31:27.696Z,99969.13
2023-04-22T21:33:57.183Z,99969.09
2023-04-22T21:36:26.487Z,99970.84
2023-04-22T21:38:54.940Z,99973.50
2023-04-22T21:41:23.420Z,99971.75
2023-04-22T21:43:51.218Z,99977.09
2023-04-22T21:46:20.022Z,99984.25
2023-04-22T21:48:47.771Z,99983.34
2023-04-22T21:51:16.946Z,99977.25
2023-04-22T21:53:45.298Z,99968.41
2023-04-22T21:56:13.315Z,99984.50
2023-04-22T21:58:41.253Z,99983.69
2023-04-22T22:01:09.097Z,99984.59
2023-04-22T22:03:38.030Z,99975.78
2023-04-22T22:06:06.520Z,99980.31
2023-04-22T22:08:35.590Z,99983.03
2023-04-22T22:11:05.906Z,99971.47
2023-04-22T22:13:34.124Z,99974.19
2023-04-22T22:16:01.993Z,99969.72
2023-04-22T22:18:29.873Z,99973.34
2023-04-22T22:20:57.591Z,99976.00
2023-04-22T22:23:25.973Z,99975.09
2023-04-22T22:25:55.080Z,99973.38
2023-04-22T22:28:22.824Z,99976.97
2023-04-22T22:30:50.591Z,99977.91
2023-04-22T22:33:18.599Z,99984.22
2023-04-22T22:35:46.413Z,99986.00
2023-04-22T22:38:14.262Z,99984.25
2023-04-22T22:40:41.958Z,99984.25
2023-04-22T22:43:11.071Z,99981.66
2023-04-22T22:45:38.953Z,99982.63
2023-04-22T22:48:07.056Z,99984.47
2023-04-22T22:50:34.914Z,99980.06
2023-04-22T22:53:02.697Z,99981.06
2023-04-22T22:55:30.423Z,99982.88
2023-04-22T22:57:58.225Z,99991.00
2023-04-22T23:00:27.455Z,99983.91
2023-04-22T23:02:55.713Z,99993.81
2023-04-22T23:05:23.546Z,99999.22
2023-04-22T23:07:51.399Z,99993.00
2023-04-22T23:10:19.162Z,99995.69
2023-04-22T23:12:46.900Z,99992.19
2023-04-22T23:15:14.587Z,99986.94
2023-04-22T23:17:43.693Z,99993.22
2023-04-22T23:20:12.288Z,99991.53
2023-04-22T23:22:40.796Z,99988.03
2023-04-22T23:25:10.286Z,99989.81
2023-04-22T23:27:38.557Z,99982.69
2023-04-22T23:30:07.928Z,99983.66
2023-04-22T23:32:36.928Z,99982.88
2023-04-22T23:35:07.838Z,99984.72
2023-04-22T23:37:38.090Z,99977.66
2023-04-22T23:40:06.916Z,99982.13
2023-04-22T23:42:34.702Z,99975.06
2023-04-22T23:45:02.704Z,99982.25
2023-04-22T23:47:31.351Z,99977.84
2023-04-22T23:49:59.276Z,99971.72
2023-04-22T23:52:28.488Z,99975.31
2023-04-22T23:54:57.934Z,99973.59
2023-04-22T23:57:26.115Z,99974.53
2023-04-22T23:59:54.488Z,99976.34
